Terminal Aerodrome Forecast
Issued by NWS

Home | Current Version | Previous Version | Text Only | Print | Product List | Glossary On
Versions: 1 2 3 4 5 6 7 8 9 10 11 12 13 14 15 16 17
000
FTUS41 KBGM 251129
TAFRME
TAF
KRME 251129Z 2512/2612 13010KT P6SM SCT025 OVC040
     FM251400 15013G22KT P6SM OVC045
     FM251800 16013G25KT 3SM SHRA BR OVC025
      TEMPO 2519/2521 1SM +TSRA BR OVC015CB
     FM252300 27009KT P6SM -RASN SCT025 OVC040
     FM260200 26010G21KT P6SM -SHSN BKN040
     FM260400 28014G31KT 6SM -SHSN BLSN BKN035
     FM260700 27012G28KT 4SM -SHSN BLSN BKN030=

USA.gov is the U.S. government's official web portal to all federal, state and local government web resources and services.